createdAt,value
2019-01-13T00:02:11.590Z,6.97
2019-01-13T00:04:39.990Z,6.30
2019-01-13T00:07:07.830Z,4.43
2019-01-13T00:09:35.767Z,7.00
2019-01-13T00:12:03.462Z,7.00
2019-01-13T00:14:31.032Z,5.83
2019-01-13T00:16:58.900Z,5.67
2019-01-13T00:19:26.501Z,6.30
2019-01-13T00:21:54.070Z,6.73
2019-01-13T00:24:21.565Z,7.80
2019-01-13T00:26:49.949Z,5.87
2019-01-13T00:29:18.290Z,6.10
2019-01-13T00:31:46.415Z,6.73
2019-01-13T00:34:14.207Z,5.90
2019-01-13T00:36:41.693Z,7.27
2019-01-13T00:39:09.471Z,5.83
2019-01-13T00:41:36.940Z,5.30
2019-01-13T00:44:04.921Z,4.57
2019-01-13T00:46:32.714Z,5.57
2019-01-13T00:49:00.555Z,5.63
2019-01-13T00:51:28.010Z,5.23
2019-01-13T00:53:55.543Z,5.60
2019-01-13T00:56:23.395Z,5.50
2019-01-13T00:58:51.146Z,5.20
2019-01-13T01:01:19.368Z,8.20
2019-01-13T01:03:46.914Z,5.73
2019-01-13T01:06:14.520Z,6.30
2019-01-13T01:08:42.258Z,5.10
2019-01-13T01:11:09.730Z,6.07
2019-01-13T01:13:37.275Z,6.53
2019-01-13T01:16:04.983Z,5.40
2019-01-13T01:18:32.821Z,5.90
2019-01-13T01:21:00.999Z,5.77
2019-01-13T01:23:28.478Z,6.13
2019-01-13T01:25:56.062Z,6.20
2019-01-13T01:28:24.227Z,6.10
2019-01-13T01:30:51.868Z,5.93
2019-01-13T01:33:25.828Z,6.13
2019-01-13T01:35:49.055Z,6.00
2019-01-13T01:38:17.154Z,4.20
2019-01-13T01:40:45.018Z,4.47
2019-01-13T01:43:12.498Z,3.83
2019-01-13T01:45:40.107Z,4.43
2019-01-13T01:48:07.947Z,4.77
2019-01-13T01:50:35.487Z,5.57
2019-01-13T01:53:03.164Z,4.77
2019-01-13T01:55:30.764Z,6.37
2019-01-13T01:57:58.666Z,5.40
2019-01-13T02:00:26.210Z,4.23
2019-01-13T02:02:54.038Z,4.27
2019-01-13T02:05:21.830Z,4.90
2019-01-13T02:07:49.424Z,4.40
2019-01-13T02:10:18.697Z,4.63
2019-01-13T02:12:46.487Z,5.07
2019-01-13T02:15:17.139Z,4.87
2019-01-13T02:17:45.321Z,4.40
2019-01-13T02:20:14.260Z,4.80
2019-01-13T02:22:42.033Z,4.93
2019-01-13T02:25:11.428Z,5.57
2019-01-13T02:27:39.572Z,5.80
2019-01-13T02:30:09.595Z,5.97
2019-01-13T02:32:37.118Z,6.93
2019-01-13T02:35:05.624Z,5.10
2019-01-13T02:37:33.238Z,6.10
2019-01-13T02:40:00.895Z,6.17
2019-01-13T02:42:28.399Z,5.87
2019-01-13T02:44:55.907Z,5.77
2019-01-13T02:47:23.680Z,6.53
2019-01-13T02:49:51.727Z,6.10
2019-01-13T02:52:19.163Z,8.30
2019-01-13T02:54:47.495Z,6.03
2019-01-13T02:57:15.263Z,6.27
2019-01-13T02:59:42.773Z,5.13
2019-01-13T03:02:10.620Z,5.37
2019-01-13T03:04:38.203Z,5.30
2019-01-13T03:07:05.978Z,6.17
2019-01-13T03:09:33.863Z,6.20
2019-01-13T03:12:02.050Z,5.40
2019-01-13T03:14:30.291Z,5.27
2019-01-13T03:16:58.406Z,5.67
2019-01-13T03:19:26.278Z,6.07
2019-01-13T03:21:53.815Z,6.43
2019-01-13T03:24:21.900Z,5.40
2019-01-13T03:26:49.474Z,6.00
2019-01-13T03:29:17.009Z,6.60
2019-01-13T03:31:45.099Z,7.33
2019-01-13T03:34:13.286Z,7.40
2019-01-13T03:36:41.130Z,5.57
2019-01-13T03:39:08.998Z,6.37
2019-01-13T03:41:36.798Z,6.60
2019-01-13T03:44:04.598Z,6.20
2019-01-13T03:46:32.202Z,5.37
2019-01-13T03:48:59.674Z,9.03
2019-01-13T03:51:27.803Z,6.10
2019-01-13T03:53:55.362Z,6.50
2019-01-13T03:56:23.167Z,7.00
2019-01-13T03:58:50.740Z,6.30
2019-01-13T04:01:18.929Z,6.80
2019-01-13T04:03:46.779Z,13.33
2019-01-13T04:06:14.327Z,8.00
2019-01-13T04:08:42.231Z,7.27
2019-01-13T04:11:11.379Z,6.23
2019-01-13T04:13:39.429Z,7.03
2019-01-13T04:16:06.927Z,6.83
2019-01-13T04:18:34.435Z,7.63
2019-01-13T04:21:02.436Z,6.67
2019-01-13T04:23:30.582Z,7.20
2019-01-13T04:25:58.432Z,6.90
2019-01-13T04:28:26.559Z,8.57
2019-01-13T04:30:54.486Z,7.20
2019-01-13T04:33:22.366Z,7.23
2019-01-13T04:35:50.416Z,7.70
2019-01-13T04:38:18.306Z,10.47
2019-01-13T04:40:45.926Z,6.83
2019-01-13T04:43:13.413Z,7.00
2019-01-13T04:45:40.854Z,7.63
2019-01-13T04:48:08.739Z,7.30
2019-01-13T04:50:36.550Z,7.83
2019-01-13T04:53:04.108Z,7.60
2019-01-13T04:55:32.027Z,7.90
2019-01-13T04:57:59.639Z,7.70
2019-01-13T05:00:27.533Z,5.70
2019-01-13T05:02:55.143Z,9.03
2019-01-13T05:05:22.600Z,8.30
2019-01-13T05:07:50.466Z,8.80
2019-01-13T05:10:19.282Z,7.30
2019-01-13T05:12:47.144Z,7.03
2019-01-13T05:15:15.259Z,7.27
2019-01-13T05:17:42.933Z,9.07
2019-01-13T05:20:12.551Z,7.37
2019-01-13T05:22:40.217Z,7.67
2019-01-13T05:25:07.731Z,7.03
2019-01-13T05:27:35.925Z,7.47
2019-01-13T05:30:05.893Z,6.53
2019-01-13T05:32:34.062Z,7.40
2019-01-13T05:35:02.002Z,8.50
2019-01-13T05:37:29.480Z,7.67
2019-01-13T05:39:57.348Z,7.30
2019-01-13T05:42:24.944Z,7.73
2019-01-13T05:44:52.874Z,7.83
2019-01-13T05:47:21.035Z,7.67
2019-01-13T05:49:48.507Z,6.03
2019-01-13T05:52:16.335Z,7.53
2019-01-13T05:54:43.866Z,7.50
2019-01-13T05:57:11.655Z,7.03
2019-01-13T05:59:39.150Z,7.40
2019-01-13T06:02:06.635Z,7.33
2019-01-13T06:04:34.514Z,8.20
2019-01-13T06:07:01.990Z,7.20
2019-01-13T06:09:29.579Z,7.13
2019-01-13T06:11:57.382Z,6.80
2019-01-13T06:14:25.071Z,7.77
2019-01-13T06:16:52.832Z,7.10
2019-01-13T06:19:20.723Z,7.10
2019-01-13T06:21:48.246Z,7.73
2019-01-13T06:24:16.644Z,8.07
2019-01-13T06:26:44.261Z,7.03
2019-01-13T06:29:11.745Z,7.47
2019-01-13T06:31:39.369Z,8.57
2019-01-13T06:34:07.149Z,8.27
2019-01-13T06:36:34.871Z,8.00
2019-01-13T06:39:04.810Z,6.67
2019-01-13T06:41:32.262Z,7.27
2019-01-13T06:44:00.067Z,7.30
2019-01-13T06:46:27.854Z,7.40
2019-01-13T06:48:56.594Z,5.20
2019-01-13T06:51:24.427Z,5.30
2019-01-13T06:53:52.542Z,5.30
2019-01-13T06:56:20.020Z,5.93
2019-01-13T06:58:47.594Z,6.67
2019-01-13T07:01:15.078Z,4.93
2019-01-13T07:03:42.954Z,6.20
2019-01-13T07:06:10.765Z,5.27
2019-01-13T07:08:38.965Z,5.43
2019-01-13T07:11:06.750Z,5.87
2019-01-13T07:13:34.278Z,5.20
2019-01-13T07:16:01.720Z,5.93
2019-01-13T07:18:29.321Z,5.70
2019-01-13T07:20:56.879Z,5.53
2019-01-13T07:23:24.514Z,5.73
2019-01-13T07:25:52.014Z,4.73
2019-01-13T07:28:19.842Z,5.47
2019-01-13T07:30:47.330Z,6.10
2019-01-13T07:33:15.468Z,5.63
2019-01-13T07:35:43.024Z,4.87
2019-01-13T07:38:10.686Z,5.27
2019-01-13T07:40:38.253Z,4.50
2019-01-13T07:43:06.729Z,5.73
2019-01-13T07:45:34.242Z,7.17
2019-01-13T07:48:01.792Z,6.07
2019-01-13T07:50:29.574Z,6.37
2019-01-13T07:52:57.077Z,7.73
2019-01-13T07:55:25.253Z,6.17
2019-01-13T07:57:52.931Z,5.90
2019-01-13T08:00:35.324Z,5.27
2019-01-13T08:03:04.398Z,4.73
2019-01-13T08:05:32.277Z,5.10
2019-01-13T08:08:00.263Z,6.90
2019-01-13T08:10:28.035Z,6.23
2019-01-13T08:12:55.610Z,10.23
2019-01-13T08:15:23.444Z,8.83
2019-01-13T08:17:51.658Z,6.20
2019-01-13T08:20:24.191Z,5.40
2019-01-13T08:22:52.393Z,5.27
2019-01-13T08:25:20.782Z,6.30
2019-01-13T08:27:48.342Z,6.27
2019-01-13T08:30:17.441Z,5.47
2019-01-13T08:32:45.527Z,7.43
2019-01-13T08:35:12.970Z,6.60
2019-01-13T08:37:40.608Z,8.93
2019-01-13T08:40:10.686Z,6.63
2019-01-13T08:42:38.302Z,6.57
2019-01-13T08:45:06.671Z,9.60
2019-01-13T08:47:34.443Z,8.33
2019-01-13T08:50:01.912Z,6.60
2019-01-13T08:52:29.470Z,7.90
2019-01-13T08:54:56.973Z,6.70
2019-01-13T08:57:25.023Z,7.60
2019-01-13T08:59:52.970Z,7.20
2019-01-13T09:02:21.119Z,6.90
2019-01-13T09:04:49.222Z,6.03
2019-01-13T09:07:16.829Z,6.70
2019-01-13T09:09:44.670Z,6.13
2019-01-13T09:12:12.606Z,8.40
2019-01-13T09:14:40.205Z,6.13
2019-01-13T09:17:08.031Z,7.37
2019-01-13T09:19:35.801Z,5.40
2019-01-13T09:22:03.581Z,8.33
2019-01-13T09:24:31.108Z,5.00
2019-01-13T09:26:58.943Z,6.03
2019-01-13T09:29:26.586Z,6.47
2019-01-13T09:31:55.023Z,10.40
2019-01-13T09:34:22.828Z,8.70
2019-01-13T09:36:50.722Z,6.20
2019-01-13T09:39:18.622Z,5.30
2019-01-13T09:41:46.118Z,5.60
2019-01-13T09:44:13.874Z,4.23
2019-01-13T09:46:41.420Z,4.10
2019-01-13T09:49:11.207Z,5.53
2019-01-13T09:51:39.386Z,4.93
2019-01-13T09:54:06.907Z,3.60
2019-01-13T09:56:34.671Z,3.90
2019-01-13T09:59:02.206Z,2.70
2019-01-13T10:01:30.039Z,3.37
2019-01-13T10:03:57.839Z,5.47
2019-01-13T10:06:25.781Z,2.60
2019-01-13T10:08:54.667Z,2.70
2019-01-13T10:11:25.404Z,2.20
2019-01-13T10:13:54.681Z,2.20
2019-01-13T10:16:22.254Z,2.57
2019-01-13T10:18:50.426Z,2.67
2019-01-13T10:21:18.683Z,1.93
2019-01-13T10:23:46.585Z,1.60
2019-01-13T10:26:14.174Z,2.63
2019-01-13T10:28:41.674Z,1.97
2019-01-13T10:31:09.239Z,1.90
2019-01-13T10:33:37.076Z,2.70
2019-01-13T10:36:04.942Z,2.03
2019-01-13T10:38:34.630Z,1.30
2019-01-13T10:41:04.089Z,2.67
2019-01-13T10:43:41.326Z,2.10
2019-01-13T10:46:10.181Z,2.40
2019-01-13T10:48:41.354Z,2.00
2019-01-13T10:51:10.527Z,1.90
2019-01-13T10:53:38.170Z,1.73
2019-01-13T10:56:14.483Z,2.13
2019-01-13T10:58:42.366Z,1.50
2019-01-13T11:01:10.228Z,2.67
2019-01-13T11:03:38.364Z,1.60
2019-01-13T11:06:05.900Z,1.80
2019-01-13T11:08:34.102Z,1.70
2019-01-13T11:11:01.882Z,1.63
2019-01-13T11:13:29.653Z,1.60
2019-01-13T11:15:57.283Z,1.50
2019-01-13T11:18:25.780Z,1.57
2019-01-13T11:20:54.026Z,1.70
2019-01-13T11:23:21.942Z,2.83
2019-01-13T11:25:49.601Z,2.10
2019-01-13T11:28:17.576Z,3.00
2019-01-13T11:30:45.440Z,2.40
2019-01-13T11:33:12.914Z,2.20
2019-01-13T11:35:40.544Z,1.70
2019-01-13T11:38:08.638Z,2.07
2019-01-13T11:40:36.146Z,1.73
2019-01-13T11:43:04.234Z,2.23
2019-01-13T11:45:32.934Z,2.57
2019-01-13T11:48:00.759Z,2.13
2019-01-13T11:50:28.249Z,2.43
2019-01-13T11:52:56.041Z,4.20
2019-01-13T11:55:23.695Z,2.63
2019-01-13T11:57:51.562Z,2.07
2019-01-13T12:00:39.768Z,2.73
2019-01-13T12:03:07.590Z,3.50
2019-01-13T12:05:35.203Z,2.50
2019-01-13T12:08:03.615Z,2.23
2019-01-13T12:10:31.415Z,2.17
2019-01-13T12:12:59.426Z,2.70
2019-01-13T12:15:27.228Z,2.90
2019-01-13T12:17:55.139Z,3.03
2019-01-13T12:20:23.290Z,2.73
2019-01-13T12:22:50.874Z,3.83
2019-01-13T12:25:19.137Z,2.93
2019-01-13T12:27:47.241Z,2.20
2019-01-13T12:30:20.509Z,1.90
2019-01-13T12:32:48.089Z,2.73
2019-01-13T12:35:15.711Z,2.60
2019-01-13T12:37:43.636Z,2.03
2019-01-13T12:40:13.283Z,2.33
2019-01-13T12:42:40.850Z,1.87
2019-01-13T12:45:08.718Z,2.20
2019-01-13T12:47:36.532Z,2.67
2019-01-13T12:50:06.358Z,4.30
2019-01-13T12:52:37.019Z,3.97
2019-01-13T12:55:05.300Z,3.67
2019-01-13T12:57:33.038Z,3.40
2019-01-13T13:00:04.477Z,2.80
2019-01-13T13:02:35.047Z,2.43
2019-01-13T13:05:03.353Z,3.67
2019-01-13T13:07:30.892Z,3.43
2019-01-13T13:09:58.988Z,3.10
2019-01-13T13:12:26.727Z,4.43
2019-01-13T13:14:54.578Z,3.60
2019-01-13T13:17:22.627Z,3.60
2019-01-13T13:19:50.214Z,2.80
2019-01-13T13:22:17.837Z,4.93
2019-01-13T13:24:45.810Z,2.60
2019-01-13T13:27:13.889Z,2.77
2019-01-13T13:29:41.386Z,2.90
2019-01-13T13:32:09.280Z,4.73
2019-01-13T13:34:36.763Z,3.23
2019-01-13T13:37:04.365Z,3.80
2019-01-13T13:39:32.246Z,4.23
2019-01-13T13:42:00.017Z,4.17
2019-01-13T13:44:27.827Z,4.07
2019-01-13T13:46:55.506Z,6.67
2019-01-13T13:49:23.375Z,4.90
2019-01-13T13:51:50.982Z,4.37
2019-01-13T13:54:18.439Z,4.43
2019-01-13T13:56:46.033Z,4.37
2019-01-13T13:59:13.939Z,4.00
2019-01-13T14:01:42.050Z,3.10
2019-01-13T14:04:10.291Z,3.90
2019-01-13T14:06:37.758Z,3.43
2019-01-13T14:09:07.619Z,4.27
2019-01-13T14:11:35.175Z,3.60
2019-01-13T14:14:02.978Z,3.53
2019-01-13T14:16:31.157Z,3.97
2019-01-13T14:18:58.753Z,2.97
2019-01-13T14:21:26.643Z,3.70
2019-01-13T14:23:54.165Z,3.53
2019-01-13T14:26:22.145Z,5.17
2019-01-13T14:28:50.006Z,3.60
2019-01-13T14:31:17.582Z,4.57
2019-01-13T14:33:52.674Z,4.40
2019-01-13T14:36:15.936Z,4.80
2019-01-13T14:38:43.858Z,3.30
2019-01-13T14:41:11.839Z,4.10
2019-01-13T14:43:39.362Z,4.17
2019-01-13T14:46:06.963Z,4.87
2019-01-13T14:48:34.874Z,4.10
2019-01-13T14:51:02.652Z,4.93
2019-01-13T14:53:30.238Z,6.50
2019-01-13T14:55:57.845Z,4.30
2019-01-13T14:58:25.661Z,5.40
2019-01-13T15:00:53.552Z,5.60
2019-01-13T15:03:22.018Z,7.80
2019-01-13T15:05:50.428Z,5.00
2019-01-13T15:08:17.886Z,5.53
2019-01-13T15:10:45.368Z,4.90
2019-01-13T15:13:13.180Z,5.20
2019-01-13T15:15:42.227Z,4.83
2019-01-13T15:18:10.410Z,4.87
2019-01-13T15:20:38.580Z,3.47
2019-01-13T15:23:06.600Z,6.83
2019-01-13T15:25:34.477Z,8.50
2019-01-13T15:28:02.040Z,5.43
2019-01-13T15:30:36.890Z,5.00
2019-01-13T15:33:05.490Z,4.10
2019-01-13T15:35:35.075Z,6.50
2019-01-13T15:38:03.268Z,6.87
2019-01-13T15:40:31.419Z,5.50
2019-01-13T15:43:00.893Z,6.03
2019-01-13T15:45:29.006Z,6.13
2019-01-13T15:47:57.159Z,7.00
2019-01-13T15:50:26.062Z,6.40
2019-01-13T15:52:53.631Z,5.23
2019-01-13T15:55:21.238Z,5.70
2019-01-13T15:57:48.771Z,5.90
2019-01-13T16:00:21.470Z,5.80
2019-01-13T16:02:49.222Z,4.33
2019-01-13T16:05:16.802Z,5.60
2019-01-13T16:07:44.330Z,6.60
2019-01-13T16:10:16.313Z,4.90
2019-01-13T16:12:43.899Z,3.57
2019-01-13T16:15:11.858Z,3.03
2019-01-13T16:17:39.810Z,3.07
2019-01-13T16:20:13.186Z,3.63
2019-01-13T16:22:40.975Z,3.33
2019-01-13T16:25:08.959Z,8.50
2019-01-13T16:27:36.470Z,4.73
2019-01-13T16:30:07.225Z,6.03
2019-01-13T16:32:37.502Z,3.77
2019-01-13T16:35:05.298Z,3.77
2019-01-13T16:37:33.154Z,6.80
2019-01-13T16:40:00.966Z,4.40
2019-01-13T16:42:28.510Z,8.80
2019-01-13T16:44:56.294Z,2.80
2019-01-13T16:47:24.079Z,3.23
2019-01-13T16:49:51.988Z,7.60
2019-01-13T16:52:19.871Z,12.50
2019-01-13T16:54:47.830Z,10.73
2019-01-13T16:57:15.787Z,7.60
2019-01-13T16:59:43.939Z,6.90
2019-01-13T17:02:11.540Z,6.60
2019-01-13T17:04:39.162Z,5.53
2019-01-13T17:07:07.307Z,4.47
2019-01-13T17:09:34.770Z,6.70
2019-01-13T17:12:02.750Z,7.30
2019-01-13T17:14:30.251Z,8.37
2019-01-13T17:16:58.474Z,10.83
2019-01-13T17:19:26.283Z,12.23
2019-01-13T17:21:54.105Z,10.27
2019-01-13T17:24:21.938Z,10.13
2019-01-13T17:26:49.574Z,8.10
2019-01-13T17:29:17.440Z,8.70
2019-01-13T17:31:45.266Z,13.10
2019-01-13T17:34:13.634Z,8.43
2019-01-13T17:36:41.451Z,9.47
2019-01-13T17:39:09.201Z,9.40
2019-01-13T17:41:37.420Z,6.40
2019-01-13T17:44:04.851Z,4.70
2019-01-13T17:46:32.718Z,3.83
2019-01-13T17:49:00.221Z,3.20
2019-01-13T17:51:28.182Z,2.60
2019-01-13T17:53:55.995Z,2.53
2019-01-13T17:56:24.326Z,2.87
2019-01-13T17:58:52.075Z,2.17
2019-01-13T18:01:41.735Z,3.40
2019-01-13T18:04:09.225Z,2.10
2019-01-13T18:06:36.799Z,2.87
2019-01-13T18:09:07.323Z,2.00
2019-01-13T18:11:34.898Z,2.63
2019-01-13T18:14:02.624Z,3.20
2019-01-13T18:16:30.240Z,5.10
2019-01-13T18:18:58.247Z,3.23
2019-01-13T18:21:26.114Z,3.63
2019-01-13T18:23:53.959Z,5.17
2019-01-13T18:26:21.457Z,4.53
2019-01-13T18:28:50.271Z,4.07
2019-01-13T18:31:17.721Z,6.90
2019-01-13T18:33:45.259Z,4.40
2019-01-13T18:36:13.718Z,4.23
2019-01-13T18:38:41.430Z,3.47
2019-01-13T18:41:09.266Z,4.67
2019-01-13T18:43:37.491Z,3.20
2019-01-13T18:46:05.971Z,3.20
2019-01-13T18:48:33.474Z,2.60
2019-01-13T18:51:01.007Z,2.50
2019-01-13T18:53:28.691Z,2.60
2019-01-13T18:55:56.157Z,3.00
2019-01-13T18:58:24.758Z,2.00
2019-01-13T19:00:52.232Z,1.30
2019-01-13T19:03:20.142Z,2.00
2019-01-13T19:05:47.673Z,1.30
2019-01-13T19:08:15.564Z,1.90
2019-01-13T19:11:17.262Z,1.70
2019-01-13T19:14:25.139Z,1.30
2019-01-13T19:17:02.007Z,2.13
2019-01-13T19:19:41.799Z,1.43
2019-01-13T19:22:09.603Z,1.70
2019-01-13T19:24:37.322Z,1.40
2019-01-13T19:27:05.543Z,1.40
2019-01-13T19:29:33.748Z,3.10
2019-01-13T19:32:01.890Z,1.63
2019-01-13T19:34:29.774Z,1.70
2019-01-13T19:37:00.186Z,1.63
2019-01-13T19:39:28.614Z,2.03
2019-01-13T19:41:56.460Z,2.60
2019-01-13T19:44:24.670Z,1.10
2019-01-13T19:46:52.755Z,1.57
2019-01-13T19:49:20.283Z,1.20
2019-01-13T19:51:54.486Z,1.47
2019-01-13T19:54:22.004Z,1.77
2019-01-13T19:56:49.738Z,1.77
2019-01-13T19:59:17.859Z,1.57
2019-01-13T20:01:46.324Z,1.30
2019-01-13T20:04:13.841Z,1.30
2019-01-13T20:06:41.326Z,1.47
2019-01-13T20:09:10.879Z,2.50
2019-01-13T20:11:38.747Z,1.97
2019-01-13T20:14:06.693Z,1.03
2019-01-13T20:16:34.299Z,1.50
2019-01-13T20:19:01.793Z,1.40
2019-01-13T20:21:29.491Z,2.50
2019-01-13T20:23:57.387Z,2.67
2019-01-13T20:26:25.071Z,2.27
2019-01-13T20:28:54.469Z,4.63
2019-01-13T20:31:22.152Z,3.40
2019-01-13T20:33:49.746Z,4.40
2019-01-13T20:36:17.362Z,4.13
2019-01-13T20:38:45.527Z,3.27
2019-01-13T20:41:13.441Z,2.73
2019-01-13T20:43:41.111Z,1.87
2019-01-13T20:46:10.839Z,1.60
2019-01-13T20:48:38.620Z,2.20
2019-01-13T20:51:06.259Z,2.80
2019-01-13T20:53:33.839Z,1.83
2019-01-13T20:56:01.652Z,1.77
2019-01-13T20:58:29.731Z,2.10
2019-01-13T21:00:57.725Z,1.90
2019-01-13T21:03:25.575Z,3.20
2019-01-13T21:05:53.279Z,1.30
2019-01-13T21:08:20.910Z,2.40
2019-01-13T21:10:49.107Z,1.80
2019-01-13T21:13:16.709Z,1.93
2019-01-13T21:15:44.580Z,2.80
2019-01-13T21:18:14.946Z,3.40
2019-01-13T21:20:42.562Z,2.37
2019-01-13T21:23:10.065Z,1.80
2019-01-13T21:25:37.514Z,1.90
2019-01-13T21:28:05.507Z,10.20
2019-01-13T21:30:33.190Z,3.00
2019-01-13T21:33:01.152Z,2.03
2019-01-13T21:35:33.756Z,3.43
2019-01-13T21:37:58.991Z,2.23
2019-01-13T21:40:27.219Z,1.90
2019-01-13T21:42:54.785Z,2.40
2019-01-13T21:45:22.666Z,2.90
2019-01-13T21:47:50.393Z,2.17
2019-01-13T21:50:19.607Z,3.07
2019-01-13T21:52:47.360Z,1.97
2019-01-13T21:55:15.682Z,2.17
2019-01-13T21:57:43.223Z,1.63
2019-01-13T22:00:14.154Z,5.13
2019-01-13T22:02:42.083Z,1.37
2019-01-13T22:05:10.207Z,1.63
2019-01-13T22:07:38.146Z,1.80
2019-01-13T22:10:07.667Z,1.80
2019-01-13T22:12:35.136Z,1.20
2019-01-13T22:15:03.644Z,1.30
2019-01-13T22:17:31.504Z,1.40
2019-01-13T22:19:59.109Z,3.73
2019-01-13T22:22:26.671Z,3.90
2019-01-13T22:24:54.272Z,1.50
2019-01-13T22:27:21.809Z,1.23
2019-01-13T22:29:49.968Z,3.80
2019-01-13T22:32:17.799Z,2.77
2019-01-13T22:34:45.559Z,5.43
2019-01-13T22:37:13.070Z,2.70
2019-01-13T22:39:40.647Z,5.00
2019-01-13T22:42:08.131Z,1.83
2019-01-13T22:44:35.983Z,1.50
2019-01-13T22:47:03.867Z,1.40
2019-01-13T22:49:31.319Z,2.93
2019-01-13T22:51:59.580Z,1.87
2019-01-13T22:54:27.179Z,3.67
2019-01-13T22:56:54.806Z,5.60
2019-01-13T22:59:22.710Z,3.43
2019-01-13T23:01:50.951Z,1.80
2019-01-13T23:04:18.522Z,1.53
2019-01-13T23:06:47.928Z,3.13
2019-01-13T23:09:15.594Z,3.07
2019-01-13T23:11:43.121Z,1.77
2019-01-13T23:14:11.258Z,2.20
2019-01-13T23:16:39.242Z,3.00
2019-01-13T23:19:06.827Z,1.40
2019-01-13T23:21:34.836Z,1.23
2019-01-13T23:24:02.436Z,2.37
2019-01-13T23:26:30.030Z,2.80
2019-01-13T23:28:58.102Z,3.47
2019-01-13T23:31:26.464Z,3.83
2019-01-13T23:33:54.501Z,3.43
2019-01-13T23:36:22.314Z,2.10
2019-01-13T23:38:50.407Z,1.30
2019-01-13T23:41:18.938Z,1.27
2019-01-13T23:43:46.826Z,2.80
2019-01-13T23:46:14.680Z,1.87
2019-01-13T23:48:42.158Z,3.03
2019-01-13T23:51:10.063Z,2.50
2019-01-13T23:53:37.958Z,2.13
2019-01-13T23:56:05.520Z,3.10
2019-01-13T23:58:33.120Z,3.20
